sensor_id;sensor_type;location;lat;lon;timestamp;temperature;humidity
73137;DHT22;61329;45.638;11.714;2022-07-23T00:00:32;31.70;35.60
73137;DHT22;61329;45.638;11.714;2022-07-23T00:02:58;31.50;35.90
73137;DHT22;61329;45.638;11.714;2022-07-23T00:05:24;31.50;36.30
73137;DHT22;61329;45.638;11.714;2022-07-23T00:07:49;31.50;36.30
73137;DHT22;61329;45.638;11.714;2022-07-23T00:10:16;31.50;36.40
73137;DHT22;61329;45.638;11.714;2022-07-23T00:12:42;31.40;36.40
73137;DHT22;61329;45.638;11.714;2022-07-23T00:15:09;31.50;36.10
73137;DHT22;61329;45.638;11.714;2022-07-23T00:17:35;31.40;36.40
73137;DHT22;61329;45.638;11.714;2022-07-23T00:20:02;31.40;36.00
73137;DHT22;61329;45.638;11.714;2022-07-23T00:22:28;31.30;36.60
73137;DHT22;61329;45.638;11.714;2022-07-23T00:24:55;31.30;36.70
73137;DHT22;61329;45.638;11.714;2022-07-23T00:27:21;31.30;36.80
73137;DHT22;61329;45.638;11.714;2022-07-23T00:29:48;31.40;36.70
73137;DHT22;61329;45.638;11.714;2022-07-23T00:32:14;31.30;37.00
73137;DHT22;61329;45.638;11.714;2022-07-23T00:34:40;31.30;36.80
73137;DHT22;61329;45.638;11.714;2022-07-23T00:37:05;31.30;37.50
73137;DHT22;61329;45.638;11.714;2022-07-23T00:39:31;31.20;37.40
73137;DHT22;61329;45.638;11.714;2022-07-23T00:41:57;31.20;37.10
73137;DHT22;61329;45.638;11.714;2022-07-23T00:44:25;31.10;37.30
73137;DHT22;61329;45.638;11.714;2022-07-23T00:46:54;31.20;37.30
73137;DHT22;61329;45.638;11.714;2022-07-23T00:49:22;31.10;37.20
73137;DHT22;61329;45.638;11.714;2022-07-23T00:51:48;31.20;37.30
73137;DHT22;61329;45.638;11.714;2022-07-23T00:54:15;31.10;37.80
73137;DHT22;61329;45.638;11.714;2022-07-23T00:56:43;31.10;37.90
73137;DHT22;61329;45.638;11.714;2022-07-23T00:59:10;31.00;37.80
73137;DHT22;61329;45.638;11.714;2022-07-23T01:01:36;31.10;37.40
73137;DHT22;61329;45.638;11.714;2022-07-23T01:04:02;31.10;38.10
73137;DHT22;61329;45.638;11.714;2022-07-23T01:06:28;31.00;37.80
73137;DHT22;61329;45.638;11.714;2022-07-23T01:08:55;31.00;38.30
73137;DHT22;61329;45.638;11.714;2022-07-23T01:11:22;31.00;38.30
73137;DHT22;61329;45.638;11.714;2022-07-23T01:13:49;30.90;38.60
73137;DHT22;61329;45.638;11.714;2022-07-23T01:16:15;30.90;38.30
73137;DHT22;61329;45.638;11.714;2022-07-23T01:18:41;30.90;39.00
73137;DHT22;61329;45.638;11.714;2022-07-23T01:21:07;30.90;38.90
73137;DHT22;61329;45.638;11.714;2022-07-23T01:23:34;30.90;39.00
73137;DHT22;61329;45.638;11.714;2022-07-23T01:26:00;30.90;39.20
73137;DHT22;61329;45.638;11.714;2022-07-23T01:28:26;30.90;39.20
73137;DHT22;61329;45.638;11.714;2022-07-23T01:30:52;30.80;38.90
73137;DHT22;61329;45.638;11.714;2022-07-23T01:33:18;30.80;38.90
73137;DHT22;61329;45.638;11.714;2022-07-23T01:35:44;30.80;38.80
73137;DHT22;61329;45.638;11.714;2022-07-23T01:38:10;30.80;38.80
73137;DHT22;61329;45.638;11.714;2022-07-23T01:40:35;30.80;39.10
73137;DHT22;61329;45.638;11.714;2022-07-23T01:43:01;30.80;38.80
73137;DHT22;61329;45.638;11.714;2022-07-23T01:45:27;30.80;39.00
73137;DHT22;61329;45.638;11.714;2022-07-23T01:47:53;30.80;39.10
73137;DHT22;61329;45.638;11.714;2022-07-23T01:50:19;30.80;39.00
73137;DHT22;61329;45.638;11.714;2022-07-23T01:52:45;30.70;39.00
73137;DHT22;61329;45.638;11.714;2022-07-23T01:55:11;30.70;39.00
73137;DHT22;61329;45.638;11.714;2022-07-23T01:57:37;30.80;38.90
73137;DHT22;61329;45.638;11.714;2022-07-23T02:00:04;30.80;38.90
73137;DHT22;61329;45.638;11.714;2022-07-23T02:02:30;30.80;38.90
73137;DHT22;61329;45.638;11.714;2022-07-23T02:04:55;30.70;38.60
73137;DHT22;61329;45.638;11.714;2022-07-23T02:07:21;30.60;39.10
73137;DHT22;61329;45.638;11.714;2022-07-23T02:09:47;30.70;38.50
73137;DHT22;61329;45.638;11.714;2022-07-23T02:12:13;30.80;38.50
73137;DHT22;61329;45.638;11.714;2022-07-23T02:14:39;30.80;39.00
73137;DHT22;61329;45.638;11.714;2022-07-23T02:17:05;30.80;38.70
73137;DHT22;61329;45.638;11.714;2022-07-23T02:19:31;30.70;38.20
73137;DHT22;61329;45.638;11.714;2022-07-23T02:21:57;30.70;38.20
73137;DHT22;61329;45.638;11.714;2022-07-23T02:24:23;30.70;38.40
73137;DHT22;61329;45.638;11.714;2022-07-23T02:26:49;30.70;38.30
73137;DHT22;61329;45.638;11.714;2022-07-23T02:29:14;30.70;38.30
73137;DHT22;61329;45.638;11.714;2022-07-23T02:31:40;30.70;38.40
73137;DHT22;61329;45.638;11.714;2022-07-23T02:34:06;30.60;38.70
73137;DHT22;61329;45.638;11.714;2022-07-23T02:36:32;30.60;38.10
73137;DHT22;61329;45.638;11.714;2022-07-23T02:38:58;30.60;38.70
73137;DHT22;61329;45.638;11.714;2022-07-23T02:41:24;30.60;38.50
73137;DHT22;61329;45.638;11.714;2022-07-23T02:43:50;30.60;38.60
73137;DHT22;61329;45.638;11.714;2022-07-23T02:46:16;30.60;38.20
73137;DHT22;61329;45.638;11.714;2022-07-23T02:48:42;30.60;38.90
73137;DHT22;61329;45.638;11.714;2022-07-23T02:51:08;30.70;38.40
73137;DHT22;61329;45.638;11.714;2022-07-23T02:53:34;30.60;38.70
73137;DHT22;61329;45.638;11.714;2022-07-23T02:55:59;30.60;39.10
73137;DHT22;61329;45.638;11.714;2022-07-23T02:58:25;30.50;39.20
73137;DHT22;61329;45.638;11.714;2022-07-23T03:00:53;30.60;38.90
73137;DHT22;61329;45.638;11.714;2022-07-23T03:03:19;30.50;39.20
73137;DHT22;61329;45.638;11.714;2022-07-23T03:05:45;30.50;39.40
73137;DHT22;61329;45.638;11.714;2022-07-23T03:08:11;30.50;40.00
73137;DHT22;61329;45.638;11.714;2022-07-23T03:10:37;30.50;40.00
73137;DHT22;61329;45.638;11.714;2022-07-23T03:13:02;30.50;40.20
73137;DHT22;61329;45.638;11.714;2022-07-23T03:15:28;30.50;40.30
73137;DHT22;61329;45.638;11.714;2022-07-23T03:17:54;30.50;40.10
73137;DHT22;61329;45.638;11.714;2022-07-23T03:20:20;30.60;39.90
73137;DHT22;61329;45.638;11.714;2022-07-23T03:22:46;30.50;40.10
73137;DHT22;61329;45.638;11.714;2022-07-23T03:25:12;30.50;40.20
73137;DHT22;61329;45.638;11.714;2022-07-23T03:27:38;30.50;39.90
73137;DHT22;61329;45.638;11.714;2022-07-23T03:30:04;30.50;40.30
73137;DHT22;61329;45.638;11.714;2022-07-23T03:32:30;30.50;40.30
73137;DHT22;61329;45.638;11.714;2022-07-23T03:34:57;30.40;40.20
73137;DHT22;61329;45.638;11.714;2022-07-23T03:37:23;30.50;40.40
73137;DHT22;61329;45.638;11.714;2022-07-23T03:39:49;30.40;39.70
73137;DHT22;61329;45.638;11.714;2022-07-23T03:42:15;30.50;40.20
73137;DHT22;61329;45.638;11.714;2022-07-23T03:44:40;30.40;40.20
73137;DHT22;61329;45.638;11.714;2022-07-23T03:47:06;30.40;39.90
73137;DHT22;61329;45.638;11.714;2022-07-23T03:49:33;30.40;40.30
73137;DHT22;61329;45.638;11.714;2022-07-23T03:51:59;30.40;40.20
73137;DHT22;61329;45.638;11.714;2022-07-23T03:54:25;30.50;40.50
73137;DHT22;61329;45.638;11.714;2022-07-23T03:56:51;30.40;40.10
73137;DHT22;61329;45.638;11.714;2022-07-23T03:59:16;30.40;40.30
73137;DHT22;61329;45.638;11.714;2022-07-23T04:01:42;30.40;40.10
73137;DHT22;61329;45.638;11.714;2022-07-23T04:04:12;30.50;40.70
73137;DHT22;61329;45.638;11.714;2022-07-23T04:06:39;30.40;40.30
73137;DHT22;61329;45.638;11.714;2022-07-23T04:09:09;30.30;40.30
73137;DHT22;61329;45.638;11.714;2022-07-23T04:11:39;30.40;40.40
73137;DHT22;61329;45.638;11.714;2022-07-23T04:14:09;30.30;40.40
73137;DHT22;61329;45.638;11.714;2022-07-23T04:16:42;30.40;40.50
73137;DHT22;61329;45.638;11.714;2022-07-23T04:19:10;30.30;40.70
73137;DHT22;61329;45.638;11.714;2022-07-23T04:21:37;30.40;40.70
73137;DHT22;61329;45.638;11.714;2022-07-23T04:24:05;30.40;40.70
73137;DHT22;61329;45.638;11.714;2022-07-23T04:26:31;30.40;40.90
73137;DHT22;61329;45.638;11.714;2022-07-23T04:28:59;30.40;41.00
73137;DHT22;61329;45.638;11.714;2022-07-23T04:31:31;30.40;41.00
73137;DHT22;61329;45.638;11.714;2022-07-23T04:33:58;30.40;40.90
73137;DHT22;61329;45.638;11.714;2022-07-23T04:36:25;30.40;41.20
73137;DHT22;61329;45.638;11.714;2022-07-23T04:38:53;30.30;40.80
73137;DHT22;61329;45.638;11.714;2022-07-23T04:41:19;30.40;41.10
73137;DHT22;61329;45.638;11.714;2022-07-23T04:43:47;30.30;41.20
73137;DHT22;61329;45.638;11.714;2022-07-23T04:46:15;30.40;41.10
73137;DHT22;61329;45.638;11.714;2022-07-23T04:48:41;30.40;41.10
73137;DHT22;61329;45.638;11.714;2022-07-23T04:51:08;30.40;40.70
73137;DHT22;61329;45.638;11.714;2022-07-23T04:53:34;30.40;40.60
73137;DHT22;61329;45.638;11.714;2022-07-23T04:56:00;30.40;40.60
73137;DHT22;61329;45.638;11.714;2022-07-23T04:58:26;30.40;40.50
73137;DHT22;61329;45.638;11.714;2022-07-23T05:00:51;30.40;41.10
73137;DHT22;61329;45.638;11.714;2022-07-23T05:03:17;30.40;40.80
73137;DHT22;61329;45.638;11.714;2022-07-23T05:05:43;30.40;41.20
73137;DHT22;61329;45.638;11.714;2022-07-23T05:08:09;30.40;40.60
73137;DHT22;61329;45.638;11.714;2022-07-23T05:10:35;30.40;41.30
73137;DHT22;61329;45.638;11.714;2022-07-23T05:13:01;30.50;40.60
73137;DHT22;61329;45.638;11.714;2022-07-23T05:15:27;30.50;41.20
73137;DHT22;61329;45.638;11.714;2022-07-23T05:17:53;30.50;40.90
73137;DHT22;61329;45.638;11.714;2022-07-23T05:20:24;30.40;41.10
73137;DHT22;61329;45.638;11.714;2022-07-23T05:22:53;30.50;40.50
73137;DHT22;61329;45.638;11.714;2022-07-23T05:25:19;30.50;40.60
73137;DHT22;61329;45.638;11.714;2022-07-23T05:27:46;30.50;40.10
73137;DHT22;61329;45.638;11.714;2022-07-23T05:30:13;30.50;40.60
73137;DHT22;61329;45.638;11.714;2022-07-23T05:32:39;30.50;40.80
73137;DHT22;61329;45.638;11.714;2022-07-23T05:35:06;30.50;40.90
73137;DHT22;61329;45.638;11.714;2022-07-23T05:37:32;30.50;40.50
73137;DHT22;61329;45.638;11.714;2022-07-23T05:40:06;30.50;40.90
73137;DHT22;61329;45.638;11.714;2022-07-23T05:42:34;30.50;40.70
73137;DHT22;61329;45.638;11.714;2022-07-23T05:45:00;30.50;40.80
73137;DHT22;61329;45.638;11.714;2022-07-23T05:47:26;30.60;41.20
73137;DHT22;61329;45.638;11.714;2022-07-23T05:49:52;30.50;40.70
73137;DHT22;61329;45.638;11.714;2022-07-23T05:52:18;30.50;41.60
73137;DHT22;61329;45.638;11.714;2022-07-23T05:54:44;30.50;41.50
73137;DHT22;61329;45.638;11.714;2022-07-23T05:57:10;30.50;41.90
73137;DHT22;61329;45.638;11.714;2022-07-23T05:59:36;30.50;41.80
73137;DHT22;61329;45.638;11.714;2022-07-23T06:02:02;30.60;41.50
73137;DHT22;61329;45.638;11.714;2022-07-23T06:04:28;30.60;41.50
73137;DHT22;61329;45.638;11.714;2022-07-23T06:06:54;30.50;41.70
73137;DHT22;61329;45.638;11.714;2022-07-23T06:09:19;30.60;41.50
73137;DHT22;61329;45.638;11.714;2022-07-23T06:11:45;30.70;41.40
73137;DHT22;61329;45.638;11.714;2022-07-23T06:14:11;30.70;41.20
73137;DHT22;61329;45.638;11.714;2022-07-23T06:16:37;30.70;41.90
73137;DHT22;61329;45.638;11.714;2022-07-23T06:19:03;30.70;41.90
73137;DHT22;61329;45.638;11.714;2022-07-23T06:21:29;30.70;42.00
73137;DHT22;61329;45.638;11.714;2022-07-23T06:23:55;30.70;41.70
73137;DHT22;61329;45.638;11.714;2022-07-23T06:26:20;30.80;41.30
73137;DHT22;61329;45.638;11.714;2022-07-23T06:28:46;30.80;41.00
73137;DHT22;61329;45.638;11.714;2022-07-23T06:31:12;30.80;41.50
73137;DHT22;61329;45.638;11.714;2022-07-23T06:33:38;30.80;40.90
73137;DHT22;61329;45.638;11.714;2022-07-23T06:36:04;30.90;41.20
73137;DHT22;61329;45.638;11.714;2022-07-23T06:38:30;30.80;40.80
73137;DHT22;61329;45.638;11.714;2022-07-23T06:40:55;30.90;40.50
73137;DHT22;61329;45.638;11.714;2022-07-23T06:43:21;30.90;39.10
73137;DHT22;61329;45.638;11.714;2022-07-23T06:45:47;30.90;38.30
73137;DHT22;61329;45.638;11.714;2022-07-23T06:48:13;30.80;38.20
73137;DHT22;61329;45.638;11.714;2022-07-23T06:50:39;30.90;38.00
73137;DHT22;61329;45.638;11.714;2022-07-23T06:53:05;30.80;38.20
73137;DHT22;61329;45.638;11.714;2022-07-23T06:55:30;30.80;37.70
73137;DHT22;61329;45.638;11.714;2022-07-23T06:57:56;30.90;37.40
73137;DHT22;61329;45.638;11.714;2022-07-23T07:00:22;30.90;37.50
73137;DHT22;61329;45.638;11.714;2022-07-23T07:02:48;30.90;37.40
73137;DHT22;61329;45.638;11.714;2022-07-23T07:05:14;30.90;37.10
73137;DHT22;61329;45.638;11.714;2022-07-23T07:07:40;30.90;37.20
73137;DHT22;61329;45.638;11.714;2022-07-23T07:10:06;30.90;37.30
73137;DHT22;61329;45.638;11.714;2022-07-23T07:12:32;30.90;36.90
73137;DHT22;61329;45.638;11.714;2022-07-23T07:14:58;31.00;37.10
73137;DHT22;61329;45.638;11.714;2022-07-23T07:17:24;30.90;37.20
73137;DHT22;61329;45.638;11.714;2022-07-23T07:19:50;30.90;36.90
73137;DHT22;61329;45.638;11.714;2022-07-23T07:22:16;30.90;37.10
73137;DHT22;61329;45.638;11.714;2022-07-23T07:24:42;30.90;36.30
73137;DHT22;61329;45.638;11.714;2022-07-23T07:27:08;31.00;36.70
73137;DHT22;61329;45.638;11.714;2022-07-23T07:29:33;31.00;36.60
73137;DHT22;61329;45.638;11.714;2022-07-23T07:31:59;31.00;36.30
73137;DHT22;61329;45.638;11.714;2022-07-23T07:34:26;30.90;36.40
73137;DHT22;61329;45.638;11.714;2022-07-23T07:36:52;31.00;36.60
73137;DHT22;61329;45.638;11.714;2022-07-23T07:39:18;31.00;36.20
73137;DHT22;61329;45.638;11.714;2022-07-23T07:41:43;31.00;35.70
73137;DHT22;61329;45.638;11.714;2022-07-23T07:44:09;31.10;36.20
73137;DHT22;61329;45.638;11.714;2022-07-23T07:46:35;31.00;36.00
73137;DHT22;61329;45.638;11.714;2022-07-23T07:49:01;31.10;36.10
73137;DHT22;61329;45.638;11.714;2022-07-23T07:51:27;31.10;35.90
73137;DHT22;61329;45.638;11.714;2022-07-23T07:53:54;31.10;35.60
73137;DHT22;61329;45.638;11.714;2022-07-23T07:56:20;31.10;35.60
73137;DHT22;61329;45.638;11.714;2022-07-23T07:58:46;31.10;34.90
73137;DHT22;61329;45.638;11.714;2022-07-23T08:01:11;31.10;35.50
73137;DHT22;61329;45.638;11.714;2022-07-23T08:03:37;31.10;34.90
73137;DHT22;61329;45.638;11.714;2022-07-23T08:06:03;31.20;35.10
73137;DHT22;61329;45.638;11.714;2022-07-23T08:08:29;31.10;34.20
73137;DHT22;61329;45.638;11.714;2022-07-23T08:10:55;31.10;34.50
73137;DHT22;61329;45.638;11.714;2022-07-23T08:13:24;31.10;35.00
73137;DHT22;61329;45.638;11.714;2022-07-23T08:15:57;31.10;33.80
73137;DHT22;61329;45.638;11.714;2022-07-23T08:18:23;31.00;34.00
73137;DHT22;61329;45.638;11.714;2022-07-23T08:20:49;31.10;34.10
73137;DHT22;61329;45.638;11.714;2022-07-23T08:23:15;31.10;34.20
73137;DHT22;61329;45.638;11.714;2022-07-23T08:25:46;31.00;34.10
73137;DHT22;61329;45.638;11.714;2022-07-23T08:28:14;31.00;33.90
73137;DHT22;61329;45.638;11.714;2022-07-23T08:30:42;31.10;34.20
73137;DHT22;61329;45.638;11.714;2022-07-23T08:33:10;31.10;33.70
73137;DHT22;61329;45.638;11.714;2022-07-23T08:35:40;31.00;33.60
73137;DHT22;61329;45.638;11.714;2022-07-23T08:38:08;31.00;33.30
73137;DHT22;61329;45.638;11.714;2022-07-23T08:40:37;31.00;33.20
73137;DHT22;61329;45.638;11.714;2022-07-23T08:43:15;31.00;32.80
73137;DHT22;61329;45.638;11.714;2022-07-23T08:45:43;31.00;32.90
73137;DHT22;61329;45.638;11.714;2022-07-23T08:48:17;31.10;32.90
73137;DHT22;61329;45.638;11.714;2022-07-23T08:50:46;31.00;33.00
73137;DHT22;61329;45.638;11.714;2022-07-23T08:53:13;31.00;33.00
73137;DHT22;61329;45.638;11.714;2022-07-23T08:55:42;31.00;33.40
73137;DHT22;61329;45.638;11.714;2022-07-23T08:58:13;31.00;33.30
73137;DHT22;61329;45.638;11.714;2022-07-23T09:00:46;31.00;32.70
73137;DHT22;61329;45.638;11.714;2022-07-23T09:03:24;31.00;33.30
73137;DHT22;61329;45.638;11.714;2022-07-23T09:05:52;31.10;33.40
73137;DHT22;61329;45.638;11.714;2022-07-23T09:08:25;31.00;33.50
73137;DHT22;61329;45.638;11.714;2022-07-23T09:10:59;31.00;33.60
73137;DHT22;61329;45.638;11.714;2022-07-23T09:15:59;31.00;33.40
73137;DHT22;61329;45.638;11.714;2022-07-23T09:18:37;31.00;33.80
73137;DHT22;61329;45.638;11.714;2022-07-23T09:21:12;31.10;33.20
73137;DHT22;61329;45.638;11.714;2022-07-23T09:23:40;31.10;33.20
73137;DHT22;61329;45.638;11.714;2022-07-23T09:26:25;31.00;33.20
73137;DHT22;61329;45.638;11.714;2022-07-23T09:29:00;31.00;32.80
73137;DHT22;61329;45.638;11.714;2022-07-23T09:31:38;30.90;32.90
73137;DHT22;61329;45.638;11.714;2022-07-23T09:34:13;31.00;33.00
73137;DHT22;61329;45.638;11.714;2022-07-23T09:36:40;31.00;32.60
73137;DHT22;61329;45.638;11.714;2022-07-23T09:39:06;31.00;32.50
73137;DHT22;61329;45.638;11.714;2022-07-23T09:41:44;31.00;33.00
73137;DHT22;61329;45.638;11.714;2022-07-23T09:44:16;31.00;32.80
73137;DHT22;61329;45.638;11.714;2022-07-23T09:46:43;30.90;33.10
73137;DHT22;61329;45.638;11.714;2022-07-23T09:51:49;31.00;33.30
73137;DHT22;61329;45.638;11.714;2022-07-23T09:56:54;30.90;33.00
73137;DHT22;61329;45.638;11.714;2022-07-23T09:59:25;31.00;33.10
73137;DHT22;61329;45.638;11.714;2022-07-23T10:01:55;31.00;32.80
73137;DHT22;61329;45.638;11.714;2022-07-23T10:04:23;31.00;32.70
73137;DHT22;61329;45.638;11.714;2022-07-23T10:06:54;31.00;32.60
73137;DHT22;61329;45.638;11.714;2022-07-23T10:09:27;31.10;32.90
73137;DHT22;61329;45.638;11.714;2022-07-23T10:11:56;31.00;32.60
73137;DHT22;61329;45.638;11.714;2022-07-23T10:14:58;31.00;32.10
73137;DHT22;61329;45.638;11.714;2022-07-23T10:17:27;31.00;32.40
73137;DHT22;61329;45.638;11.714;2022-07-23T10:19:52;31.00;32.00
73137;DHT22;61329;45.638;11.714;2022-07-23T10:22:47;31.10;31.50
73137;DHT22;61329;45.638;11.714;2022-07-23T10:25:46;30.90;31.80
73137;DHT22;61329;45.638;11.714;2022-07-23T10:36:17;30.90;32.30
73137;DHT22;61329;45.638;11.714;2022-07-23T10:38:54;30.90;31.80
73137;DHT22;61329;45.638;11.714;2022-07-23T10:41:36;30.90;32.00
73137;DHT22;61329;45.638;11.714;2022-07-23T10:44:21;30.90;31.80
73137;DHT22;61329;45.638;11.714;2022-07-23T10:47:02;30.90;32.00
73137;DHT22;61329;45.638;11.714;2022-07-23T10:49:33;30.90;32.50
73137;DHT22;61329;45.638;11.714;2022-07-23T10:52:15;30.90;32.40
73137;DHT22;61329;45.638;11.714;2022-07-23T10:54:41;30.80;32.60
73137;DHT22;61329;45.638;11.714;2022-07-23T10:57:08;30.80;32.10
73137;DHT22;61329;45.638;11.714;2022-07-23T11:02:35;30.90;32.70
73137;DHT22;61329;45.638;11.714;2022-07-23T11:05:06;30.80;32.20
73137;DHT22;61329;45.638;11.714;2022-07-23T11:07:33;30.80;32.20
73137;DHT22;61329;45.638;11.714;2022-07-23T11:10:00;30.80;32.30
73137;DHT22;61329;45.638;11.714;2022-07-23T11:15:11;30.80;31.80
73137;DHT22;61329;45.638;11.714;2022-07-23T11:27:50;30.70;30.80
73137;DHT22;61329;45.638;11.714;2022-07-23T11:32:55;30.70;31.30
73137;DHT22;61329;45.638;11.714;2022-07-23T11:35:44;30.80;30.80
73137;DHT22;61329;45.638;11.714;2022-07-23T11:38:22;30.60;31.20
73137;DHT22;61329;45.638;11.714;2022-07-23T11:40:52;30.70;30.90
73137;DHT22;61329;45.638;11.714;2022-07-23T11:43:18;30.70;30.50
73137;DHT22;61329;45.638;11.714;2022-07-23T11:45:47;30.60;30.50
73137;DHT22;61329;45.638;11.714;2022-07-23T11:48:21;30.70;30.60
73137;DHT22;61329;45.638;11.714;2022-07-23T11:50:48;30.60;30.50
73137;DHT22;61329;45.638;11.714;2022-07-23T11:53:21;30.70;30.40
73137;DHT22;61329;45.638;11.714;2022-07-23T11:55:47;30.70;30.10
73137;DHT22;61329;45.638;11.714;2022-07-23T11:58:13;30.70;29.70
73137;DHT22;61329;45.638;11.714;2022-07-23T12:00:41;30.70;30.30
73137;DHT22;61329;45.638;11.714;2022-07-23T12:03:08;30.70;29.90
73137;DHT22;61329;45.638;11.714;2022-07-23T12:05:36;30.60;29.60
73137;DHT22;61329;45.638;11.714;2022-07-23T12:08:04;30.70;29.90
73137;DHT22;61329;45.638;11.714;2022-07-23T12:10:35;30.60;29.90
73137;DHT22;61329;45.638;11.714;2022-07-23T12:13:04;30.60;29.80
73137;DHT22;61329;45.638;11.714;2022-07-23T12:15:36;30.60;29.20
73137;DHT22;61329;45.638;11.714;2022-07-23T12:18:08;30.70;29.90
73137;DHT22;61329;45.638;11.714;2022-07-23T12:20:39;30.60;29.60
73137;DHT22;61329;45.638;11.714;2022-07-23T12:23:08;30.60;29.50
73137;DHT22;61329;45.638;11.714;2022-07-23T12:25:36;30.60;29.80
73137;DHT22;61329;45.638;11.714;2022-07-23T12:30:53;30.60;29.10
73137;DHT22;61329;45.638;11.714;2022-07-23T12:33:30;30.50;29.70
73137;DHT22;61329;45.638;11.714;2022-07-23T12:35:59;30.60;30.30
73137;DHT22;61329;45.638;11.714;2022-07-23T12:38:27;30.50;29.80
73137;DHT22;61329;45.638;11.714;2022-07-23T12:40:58;30.60;29.70
73137;DHT22;61329;45.638;11.714;2022-07-23T12:43:37;30.60;29.60
73137;DHT22;61329;45.638;11.714;2022-07-23T12:49:00;30.60;29.80
73137;DHT22;61329;45.638;11.714;2022-07-23T12:51:28;30.60;29.40
73137;DHT22;61329;45.638;11.714;2022-07-23T12:54:10;30.50;30.10
73137;DHT22;61329;45.638;11.714;2022-07-23T12:56:40;30.50;30.40
73137;DHT22;61329;45.638;11.714;2022-07-23T12:59:12;30.40;29.00
73137;DHT22;61329;45.638;11.714;2022-07-23T13:01:44;30.50;29.40
73137;DHT22;61329;45.638;11.714;2022-07-23T13:04:19;30.50;29.50
73137;DHT22;61329;45.638;11.714;2022-07-23T13:06:47;30.50;29.20
73137;DHT22;61329;45.638;11.714;2022-07-23T13:09:18;30.50;29.70
73137;DHT22;61329;45.638;11.714;2022-07-23T13:11:46;30.50;29.20
73137;DHT22;61329;45.638;11.714;2022-07-23T13:14:13;30.40;28.90
73137;DHT22;61329;45.638;11.714;2022-07-23T13:16:40;30.60;28.90
73137;DHT22;61329;45.638;11.714;2022-07-23T13:19:06;30.50;29.90
73137;DHT22;61329;45.638;11.714;2022-07-23T13:21:33;30.40;29.40
73137;DHT22;61329;45.638;11.714;2022-07-23T13:23:59;30.40;29.80
73137;DHT22;61329;45.638;11.714;2022-07-23T13:26:25;30.50;29.10
73137;DHT22;61329;45.638;11.714;2022-07-23T13:28:52;30.60;29.10
73137;DHT22;61329;45.638;11.714;2022-07-23T13:31:18;30.60;28.40
73137;DHT22;61329;45.638;11.714;2022-07-23T13:33:44;30.70;28.10
73137;DHT22;61329;45.638;11.714;2022-07-23T13:36:10;30.70;28.20
73137;DHT22;61329;45.638;11.714;2022-07-23T13:38:37;30.70;28.00
73137;DHT22;61329;45.638;11.714;2022-07-23T13:41:03;30.70;27.80
73137;DHT22;61329;45.638;11.714;2022-07-23T13:43:31;30.80;27.80
73137;DHT22;61329;45.638;11.714;2022-07-23T13:45:58;30.90;27.50
73137;DHT22;61329;45.638;11.714;2022-07-23T13:48:24;30.90;27.40
73137;DHT22;61329;45.638;11.714;2022-07-23T13:50:51;30.90;28.00
73137;DHT22;61329;45.638;11.714;2022-07-23T13:53:23;30.90;27.10
73137;DHT22;61329;45.638;11.714;2022-07-23T13:55:52;31.00;27.50
73137;DHT22;61329;45.638;11.714;2022-07-23T13:58:20;31.10;27.20
73137;DHT22;61329;45.638;11.714;2022-07-23T14:00:48;31.20;27.20
73137;DHT22;61329;45.638;11.714;2022-07-23T14:03:16;31.20;27.10
73137;DHT22;61329;45.638;11.714;2022-07-23T14:05:42;31.20;27.80
73137;DHT22;61329;45.638;11.714;2022-07-23T14:08:09;31.10;27.40
73137;DHT22;61329;45.638;11.714;2022-07-23T14:10:35;31.20;27.00
73137;DHT22;61329;45.638;11.714;2022-07-23T14:13:01;31.20;26.80
73137;DHT22;61329;45.638;11.714;2022-07-23T14:15:29;31.30;26.40
73137;DHT22;61329;45.638;11.714;2022-07-23T14:17:56;31.40;26.30
73137;DHT22;61329;45.638;11.714;2022-07-23T14:20:22;31.40;26.00
73137;DHT22;61329;45.638;11.714;2022-07-23T14:22:48;31.40;26.10
73137;DHT22;61329;45.638;11.714;2022-07-23T14:25:15;31.50;26.40
73137;DHT22;61329;45.638;11.714;2022-07-23T14:27:49;31.60;26.20
73137;DHT22;61329;45.638;11.714;2022-07-23T14:30:16;31.50;25.70
73137;DHT22;61329;45.638;11.714;2022-07-23T14:32:43;31.50;25.70
73137;DHT22;61329;45.638;11.714;2022-07-23T14:35:09;31.50;25.50
73137;DHT22;61329;45.638;11.714;2022-07-23T14:37:42;31.50;26.10
73137;DHT22;61329;45.638;11.714;2022-07-23T14:40:08;31.60;25.60
73137;DHT22;61329;45.638;11.714;2022-07-23T14:42:34;31.60;25.60
73137;DHT22;61329;45.638;11.714;2022-07-23T14:45:00;31.60;25.50
73137;DHT22;61329;45.638;11.714;2022-07-23T14:47:26;31.70;25.50
73137;DHT22;61329;45.638;11.714;2022-07-23T14:49:52;31.60;25.60
73137;DHT22;61329;45.638;11.714;2022-07-23T14:52:18;31.70;25.40
73137;DHT22;61329;45.638;11.714;2022-07-23T14:54:44;31.60;25.70
73137;DHT22;61329;45.638;11.714;2022-07-23T14:57:10;31.60;25.70
73137;DHT22;61329;45.638;11.714;2022-07-23T14:59:36;31.60;25.60
73137;DHT22;61329;45.638;11.714;2022-07-23T15:02:02;31.60;25.50
73137;DHT22;61329;45.638;11.714;2022-07-23T15:04:28;31.50;25.20
73137;DHT22;61329;45.638;11.714;2022-07-23T15:06:54;31.60;25.40
73137;DHT22;61329;45.638;11.714;2022-07-23T15:09:20;31.60;25.10
73137;DHT22;61329;45.638;11.714;2022-07-23T15:11:46;31.60;25.00
73137;DHT22;61329;45.638;11.714;2022-07-23T15:14:12;31.70;25.50
73137;DHT22;61329;45.638;11.714;2022-07-23T15:16:38;31.70;26.20
73137;DHT22;61329;45.638;11.714;2022-07-23T15:19:04;31.80;26.40
73137;DHT22;61329;45.638;11.714;2022-07-23T15:21:30;31.90;25.60
73137;DHT22;61329;45.638;11.714;2022-07-23T15:23:57;31.90;25.80
73137;DHT22;61329;45.638;11.714;2022-07-23T15:26:28;31.80;26.40
73137;DHT22;61329;45.638;11.714;2022-07-23T15:28:54;31.80;25.50
73137;DHT22;61329;45.638;11.714;2022-07-23T15:31:20;31.80;26.50
73137;DHT22;61329;45.638;11.714;2022-07-23T15:33:46;31.70;26.10
73137;DHT22;61329;45.638;11.714;2022-07-23T15:36:12;31.70;26.30
73137;DHT22;61329;45.638;11.714;2022-07-23T15:38:38;31.60;26.20
73137;DHT22;61329;45.638;11.714;2022-07-23T15:41:04;31.60;26.20
73137;DHT22;61329;45.638;11.714;2022-07-23T15:43:30;31.60;26.20
73137;DHT22;61329;45.638;11.714;2022-07-23T15:45:56;31.50;26.00
73137;DHT22;61329;45.638;11.714;2022-07-23T15:48:22;31.60;26.20
73137;DHT22;61329;45.638;11.714;2022-07-23T15:50:48;31.60;26.10
73137;DHT22;61329;45.638;11.714;2022-07-23T15:53:14;31.50;25.50
73137;DHT22;61329;45.638;11.714;2022-07-23T15:55:40;31.40;25.60
73137;DHT22;61329;45.638;11.714;2022-07-23T15:58:07;31.40;26.20